Time;durP1;ratioP1;P1;durP2;ratioP2;P2;SDS_P1;SDS_P2;PMS_P1;PMS_P2;Temp;Humidity;BMP_temperature;BMP_pressure;BME280_temperature;BME280_humidity;BME280_pressure;Samples;Min_cycle;Max_cycle;Signal;HPM_P1;HPM_P2
2023/10/03 00:00:35;;;;;;;37.08;26.50;;;17.00;95.40;;;;;;5094313;28;20035;-48
2023/10/03 00:03:04;;;;;;;42.05;29.10;;;16.90;95.40;;;;;;5087608;28;20037;-47
2023/10/03 00:05:31;;;;;;;35.80;26.60;;;16.90;95.40;;;;;;5056609;28;20416;-48
2023/10/03 00:08:06;;;;;;;41.95;30.80;;;16.90;95.40;;;;;;5074809;28;20064;-49
2023/10/03 00:10:38;;;;;;;36.35;26.95;;;16.90;95.40;;;;;;5078931;28;20031;-50
2023/10/03 00:13:11;;;;;;;39.15;28.25;;;16.90;95.50;;;;;;5097081;28;20117;-52
2023/10/03 00:15:43;;;;;;;42.78;31.00;;;16.90;95.50;;;;;;5082382;28;20373;-51
2023/10/03 00:18:10;;;;;;;39.85;29.60;;;16.90;95.50;;;;;;5094156;28;20464;-47
2023/10/03 00:20:37;;;;;;;41.63;30.17;;;16.90;95.50;;;;;;5062545;28;20457;-46
2023/10/03 00:23:06;;;;;;;43.58;31.42;;;16.90;95.40;;;;;;5039589;28;20032;-50
2023/10/03 00:25:36;;;;;;;42.43;30.50;;;16.90;95.50;;;;;;5077356;28;20035;-48
2023/10/03 00:28:05;;;;;;;45.33;31.65;;;16.90;95.40;;;;;;5066285;28;20031;-48
2023/10/03 00:30:36;;;;;;;44.45;32.15;;;16.90;95.50;;;;;;5093525;28;20479;-48
2023/10/03 00:33:05;;;;;;;44.70;30.80;;;16.90;95.50;;;;;;5093467;28;20062;-45
2023/10/03 00:35:39;;;;;;;42.47;30.02;;;16.80;95.50;;;;;;5088356;28;20063;-51
2023/10/03 00:38:15;;;;;;;44.03;32.33;;;16.80;95.50;;;;;;5076424;28;20441;-48
2023/10/03 00:40:52;;;;;;;46.28;33.63;;;16.90;95.50;;;;;;5086393;28;20036;-45
2023/10/03 00:43:21;;;;;;;38.80;29.88;;;16.90;95.60;;;;;;5065418;28;20027;-48
2023/10/03 00:45:52;;;;;;;45.45;32.05;;;16.90;95.50;;;;;;5087225;28;20036;-47
2023/10/03 00:48:33;;;;;;;49.25;35.60;;;16.80;95.50;;;;;;5093600;28;20028;-48
2023/10/03 00:50:59;;;;;;;48.08;34.35;;;16.70;95.40;;;;;;5093471;28;20016;-50
2023/10/03 00:53:28;;;;;;;52.83;36.28;;;16.80;95.50;;;;;;5088823;28;20026;-47
2023/10/03 00:55:59;;;;;;;51.83;36.20;;;16.80;95.50;;;;;;5089573;28;20499;-45
2023/10/03 00:58:32;;;;;;;51.35;36.35;;;16.80;95.60;;;;;;5076052;28;20036;-46
2023/10/03 01:01:00;;;;;;;57.45;41.83;;;16.80;95.60;;;;;;5090107;28;20417;-48
2023/10/03 01:03:38;;;;;;;54.25;39.72;;;16.80;95.70;;;;;;5079236;28;20726;-50
2023/10/03 01:06:23;;;;;;;53.53;36.58;;;16.90;95.70;;;;;;5071091;28;20441;-46
2023/10/03 01:08:51;;;;;;;50.75;35.05;;;16.90;95.80;;;;;;5093352;28;20457;-50
2023/10/03 01:11:18;;;;;;;58.60;38.63;;;16.90;95.70;;;;;;5083932;28;20116;-50
2023/10/03 01:13:54;;;;;;;51.05;35.55;;;16.90;95.60;;;;;;5077425;28;20030;-49
2023/10/03 01:16:41;;;;;;;56.47;38.95;;;16.80;95.70;;;;;;5075996;28;20460;-46
2023/10/03 01:19:20;;;;;;;52.17;37.95;;;16.90;95.70;;;;;;5083511;28;20376;-47
2023/10/03 01:21:57;;;;;;;46.92;34.67;;;16.90;95.70;;;;;;5093476;28;20443;-46
2023/10/03 01:24:27;;;;;;;49.90;38.30;;;16.90;95.70;;;;;;5093024;28;20024;-46
2023/10/03 01:27:10;;;;;;;53.00;38.47;;;16.80;95.60;;;;;;5077362;28;20020;-46
2023/10/03 01:29:38;;;;;;;47.28;36.03;;;16.80;95.60;;;;;;5092755;28;20036;-49
2023/10/03 01:32:09;;;;;;;57.35;37.67;;;16.80;95.60;;;;;;5094976;28;20158;-48
2023/10/03 01:34:36;;;;;;;52.17;36.45;;;16.80;95.60;;;;;;5090681;28;20043;-50
2023/10/03 01:37:03;;;;;;;57.28;40.50;;;16.80;95.70;;;;;;5093004;28;20395;-47
2023/10/03 01:39:33;;;;;;;52.15;37.58;;;16.80;95.60;;;;;;5090606;28;20039;-48
2023/10/03 01:42:03;;;;;;;61.08;41.08;;;16.80;95.60;;;;;;5072499;28;20024;-48
2023/10/03 01:44:30;;;;;;;58.17;41.00;;;16.70;95.60;;;;;;5085911;28;20173;-49
2023/10/03 01:46:58;;;;;;;58.67;41.90;;;16.70;95.70;;;;;;5087794;28;20177;-48
2023/10/03 01:49:27;;;;;;;65.68;42.17;;;16.80;95.70;;;;;;5092639;28;20032;-46
2023/10/03 01:51:55;;;;;;;65.80;42.28;;;16.80;95.80;;;;;;5091878;28;20036;-46
2023/10/03 01:54:23;;;;;;;54.63;41.88;;;16.80;95.70;;;;;;5082168;28;20043;-48
2023/10/03 01:56:49;;;;;;;55.03;38.45;;;16.80;95.80;;;;;;5092636;28;20169;-48
2023/10/03 01:59:16;;;;;;;57.67;39.10;;;16.80;95.70;;;;;;5091255;28;20090;-48
2023/10/03 02:01:45;;;;;;;63.10;39.67;;;16.80;95.70;;;;;;5105425;28;20087;-46
2023/10/03 02:04:11;;;;;;;59.00;39.60;;;16.80;95.60;;;;;;5094336;28;20032;-47
2023/10/03 02:06:39;;;;;;;55.85;38.92;;;16.90;95.60;;;;;;5086383;28;20028;-46
2023/10/03 02:09:08;;;;;;;54.92;36.30;;;16.80;95.60;;;;;;5085634;28;20024;-48
2023/10/03 02:11:35;;;;;;;49.95;36.03;;;16.80;95.60;;;;;;5091830;28;20043;-48
2023/10/03 02:14:07;;;;;;;55.58;36.63;;;16.90;95.50;;;;;;5074578;28;20465;-47
2023/10/03 02:16:46;;;;;;;49.47;34.08;;;16.90;95.50;;;;;;5088320;28;20056;-48
2023/10/03 02:19:14;;;;;;;50.28;32.60;;;16.90;95.40;;;;;;5083196;28;20020;-46
2023/10/03 02:21:42;;;;;;;51.38;33.08;;;16.90;95.30;;;;;;5092611;28;20024;-46
2023/10/03 02:24:12;;;;;;;46.40;31.98;;;16.90;95.20;;;;;;5092728;28;20055;-51
2023/10/03 02:26:41;;;;;;;41.72;29.63;;;16.90;95.10;;;;;;5083918;28;20748;-46
2023/10/03 02:29:10;;;;;;;43.50;31.25;;;16.90;94.90;;;;;;5063549;28;20035;-48
2023/10/03 02:31:38;;;;;;;40.67;26.33;;;16.90;94.80;;;;;;5092381;28;20024;-46
2023/10/03 02:34:08;;;;;;;45.28;28.38;;;16.90;94.70;;;;;;5067291;28;20336;-49
2023/10/03 02:36:34;;;;;;;37.50;26.63;;;16.90;94.50;;;;;;5092256;28;20023;-48
2023/10/03 02:39:01;;;;;;;35.65;24.92;;;17.00;94.40;;;;;;5093739;28;20057;-50
2023/10/03 02:41:30;;;;;;;37.10;25.35;;;17.00;94.30;;;;;;5090754;28;20033;-46
2023/10/03 02:43:56;;;;;;;35.95;24.63;;;16.90;94.10;;;;;;5067568;28;20127;-49
2023/10/03 02:46:26;;;;;;;42.17;26.08;;;17.00;94.00;;;;;;5095444;28;20127;-51
2023/10/03 02:48:55;;;;;;;;;;;17.00;93.80;;;;;;5096104;28;20028;-48
2023/10/03 02:51:21;;;;;;;37.17;24.55;;;16.90;93.80;;;;;;5089218;28;20008;-49
2023/10/03 02:53:47;;;;;;;34.17;24.98;;;16.90;93.70;;;;;;5075408;28;20096;-47
2023/10/03 02:56:14;;;;;;;33.85;24.13;;;17.00;93.60;;;;;;5075035;28;20052;-47
2023/10/03 02:58:43;;;;;;;32.80;22.55;;;16.90;93.60;;;;;;5064243;28;20032;-51
2023/10/03 03:01:13;;;;;;;36.00;22.75;;;17.00;93.50;;;;;;5064491;28;20028;-50
2023/10/03 03:03:43;;;;;;;35.67;23.42;;;16.90;93.40;;;;;;5075207;28;20035;-49
2023/10/03 03:06:14;;;;;;;34.53;22.02;;;17.00;93.40;;;;;;5086638;28;20028;-50
2023/10/03 03:08:44;;;;;;;33.28;22.30;;;16.90;93.30;;;;;;5075011;28;20107;-48
2023/10/03 03:11:15;;;;;;;;;;;16.90;93.20;;;;;;5074879;28;20398;-49
2023/10/03 03:13:45;;;;;;;31.30;22.60;;;16.90;93.20;;;;;;5085517;28;19995;-52
2023/10/03 03:16:14;;;;;;;31.58;21.92;;;16.90;93.20;;;;;;5095250;28;20032;-51
2023/10/03 03:18:42;;;;;;;34.17;22.75;;;16.90;93.20;;;;;;5077754;28;20365;-48
2023/10/03 03:21:13;;;;;;;32.03;21.20;;;16.80;93.10;;;;;;5082789;28;20028;-49
2023/10/03 03:23:49;;;;;;;28.98;21.02;;;16.80;93.10;;;;;;5070655;28;20373;-47
2023/10/03 03:26:20;;;;;;;29.92;20.02;;;16.80;93.00;;;;;;5058444;28;20036;-49
2023/10/03 03:28:49;;;;;;;28.52;19.75;;;16.80;92.90;;;;;;5083355;28;20060;-47
2023/10/03 03:33:49;;;;;;;31.83;19.38;;;16.80;92.80;;;;;;5075246;28;20115;-48
2023/10/03 03:36:17;;;;;;;32.78;19.67;;;16.80;92.90;;;;;;5074864;28;20044;-53
2023/10/03 03:38:51;;;;;;;28.67;19.33;;;16.80;92.90;;;;;;5056907;28;20753;-49
2023/10/03 03:41:19;;;;;;;33.78;19.50;;;16.80;92.70;;;;;;5092820;28;20044;-48
2023/10/03 03:43:48;;;;;;;29.33;18.85;;;16.90;92.70;;;;;;5094882;28;20372;-50
2023/10/03 03:46:19;;;;;;;32.13;20.83;;;16.90;92.50;;;;;;5090448;28;20109;-51
2023/10/03 03:48:48;;;;;;;28.92;20.70;;;16.90;92.30;;;;;;5093262;28;20460;-47
2023/10/03 03:51:17;;;;;;;29.08;18.20;;;16.90;92.10;;;;;;5089534;28;20024;-48
2023/10/03 03:53:45;;;;;;;28.45;18.30;;;16.90;92.00;;;;;;5094700;28;20492;-49
2023/10/03 03:56:16;;;;;;;28.43;19.80;;;16.90;91.90;;;;;;5094747;28;20023;-51
2023/10/03 03:58:45;;;;;;;27.98;18.42;;;16.90;91.60;;;;;;5094682;28;20032;-48
2023/10/03 04:01:16;;;;;;;24.60;16.42;;;16.90;91.50;;;;;;5094065;28;20480;-47
2023/10/03 04:03:45;;;;;;;29.63;17.90;;;16.90;91.50;;;;;;5075681;28;20035;-52
2023/10/03 04:06:12;;;;;;;29.90;18.00;;;17.00;91.40;;;;;;5094541;28;20034;-51
2023/10/03 04:08:40;;;;;;;30.30;18.77;;;17.00;91.20;;;;;;5094381;28;20032;-53
2023/10/03 04:11:15;;;;;;;26.27;17.02;;;17.00;91.00;;;;;;5076306;28;20051;-51
2023/10/03 04:13:56;;;;;;;25.63;15.98;;;17.10;90.80;;;;;;5085055;28;20408;-51
2023/10/03 04:16:28;;;;;;;24.35;16.50;;;17.10;90.50;;;;;;5094317;28;20020;-53
2023/10/03 04:18:53;;;;;;;24.02;15.95;;;17.10;90.40;;;;;;5081457;28;20442;-53
2023/10/03 04:21:20;;;;;;;25.80;17.00;;;17.10;90.30;;;;;;5056348;28;20037;-48
2023/10/03 04:23:49;;;;;;;30.92;18.25;;;17.20;90.20;;;;;;5074095;28;20083;-51
2023/10/03 04:26:16;;;;;;;28.23;17.38;;;17.20;90.00;;;;;;5076624;28;20840;-50
2023/10/03 04:28:41;;;;;;;26.42;17.20;;;17.30;89.90;;;;;;5075959;28;20370;-53
2023/10/03 04:31:09;;;;;;;30.65;17.63;;;17.30;89.70;;;;;;5090256;28;20031;-50
2023/10/03 04:33:36;;;;;;;27.83;17.10;;;17.30;89.80;;;;;;5094148;28;20016;-51
2023/10/03 04:36:09;;;;;;;27.88;16.70;;;17.30;89.70;;;;;;5093756;28;20036;-51
2023/10/03 04:38:48;;;;;;;28.05;17.83;;;17.30;89.60;;;;;;5075661;28;20425;-51
2023/10/03 04:41:15;;;;;;;27.10;16.15;;;17.30;89.50;;;;;;5073131;28;20047;-53
2023/10/03 04:43:44;;;;;;;34.83;16.88;;;17.30;89.30;;;;;;5081079;28;20024;-53
2023/10/03 04:46:12;;;;;;;26.80;17.35;;;17.40;89.30;;;;;;5091943;28;20040;-52
2023/10/03 04:48:40;;;;;;;24.63;16.92;;;17.40;89.20;;;;;;5093759;28;20605;-52
2023/10/03 04:51:05;;;;;;;26.33;17.60;;;17.40;89.20;;;;;;5092868;28;20661;-51
2023/10/03 04:53:33;;;;;;;26.25;16.38;;;17.40;89.10;;;;;;5075723;28;20016;-50
2023/10/03 04:56:00;;;;;;;25.88;16.55;;;17.40;89.00;;;;;;5085894;28;20025;-53
2023/10/03 04:58:29;;;;;;;26.85;16.80;;;17.40;89.20;;;;;;5077155;28;20043;-50
2023/10/03 05:00:56;;;;;;;27.60;16.98;;;17.30;89.20;;;;;;5092683;28;20443;-54
2023/10/03 05:03:22;;;;;;;26.23;16.63;;;17.40;89.00;;;;;;5093596;28;20032;-54
2023/10/03 05:05:49;;;;;;;24.08;15.35;;;17.30;89.10;;;;;;5090408;28;20074;-52
2023/10/03 05:08:18;;;;;;;26.10;17.00;;;17.40;89.10;;;;;;5093466;28;20032;-51
2023/10/03 05:10:47;;;;;;;28.27;16.83;;;17.40;89.20;;;;;;5093668;28;20085;-51
2023/10/03 05:13:23;;;;;;;24.73;15.52;;;17.30;89.20;;;;;;5087968;28;20036;-51
2023/10/03 05:15:55;;;;;;;29.05;16.95;;;17.30;89.20;;;;;;5092732;28;20020;-53
2023/10/03 05:18:24;;;;;;;27.60;17.27;;;17.30;89.20;;;;;;5079451;28;20032;-53
2023/10/03 05:20:58;;;;;;;29.10;17.67;;;17.40;89.20;;;;;;5072857;28;20028;-54
2023/10/03 05:23:24;;;;;;;27.85;17.63;;;17.30;89.20;;;;;;5058970;28;20088;-51
2023/10/03 05:25:53;;;;;;;28.08;17.40;;;17.30;89.20;;;;;;5093187;28;20392;-52
2023/10/03 05:28:18;;;;;;;27.60;16.50;;;17.30;89.20;;;;;;5086231;28;20043;-52
2023/10/03 05:30:45;;;;;;;24.67;16.77;;;17.30;89.30;;;;;;5093041;28;20028;-48
2023/10/03 05:33:12;;;;;;;26.95;17.83;;;17.40;89.40;;;;;;5093112;28;20449;-51
2023/10/03 05:35:41;;;;;;;26.63;17.45;;;17.40;89.30;;;;;;5086982;28;20096;-51
2023/10/03 05:38:11;;;;;;;26.25;17.30;;;17.40;89.40;;;;;;5072325;28;20040;-50
2023/10/03 05:40:37;;;;;;;28.25;17.88;;;17.40;89.20;;;;;;5072812;28;20522;-52
2023/10/03 05:43:07;;;;;;;28.20;17.00;;;17.50;89.20;;;;;;5074428;28;20040;-50
2023/10/03 05:45:35;;;;;;;27.63;17.73;;;17.50;89.10;;;;;;5092637;28;20115;-52
2023/10/03 05:48:04;;;;;;;29.55;18.05;;;17.50;89.20;;;;;;5089565;28;20040;-54
2023/10/03 05:50:32;;;;;;;25.83;17.05;;;17.60;89.20;;;;;;5090591;28;20032;-50
2023/10/03 05:53:09;;;;;;;30.55;17.67;;;17.60;89.00;;;;;;5092659;28;20043;-50
2023/10/03 05:55:45;;;;;;;27.52;16.77;;;17.60;89.00;;;;;;5092201;28;20107;-51
2023/10/03 05:58:11;;;;;;;27.92;16.48;;;17.60;89.10;;;;;;5075472;28;20105;-53
2023/10/03 06:00:39;;;;;;;26.83;16.13;;;17.60;88.90;;;;;;5090522;28;20338;-55
2023/10/03 06:03:09;;;;;;;30.52;18.48;;;17.70;89.10;;;;;;5072514;28;20021;-53
2023/10/03 06:05:46;;;;;;;27.95;16.23;;;17.80;89.00;;;;;;5072833;28;20465;-48
2023/10/03 06:08:14;;;;;;;27.75;16.42;;;17.90;88.80;;;;;;5090934;28;20554;-54
2023/10/03 06:10:41;;;;;;;25.30;15.57;;;17.90;88.40;;;;;;5092433;28;20091;-51
2023/10/03 06:13:12;;;;;;;29.73;16.73;;;18.00;88.40;;;;;;5091006;28;20033;-52
2023/10/03 06:15:46;;;;;;;27.55;18.58;;;18.10;88.40;;;;;;5079116;28;20020;-53
2023/10/03 06:18:13;;;;;;;23.67;16.13;;;18.20;88.30;;;;;;5096650;28;20026;-53
2023/10/03 06:20:39;;;;;;;27.63;17.38;;;18.30;88.10;;;;;;5096547;28;20438;-52
2023/10/03 06:23:05;;;;;;;28.85;18.02;;;18.30;88.20;;;;;;5079259;28;20144;-53
2023/10/03 06:25:32;;;;;;;28.80;17.33;;;18.40;88.20;;;;;;5080730;28;20035;-51
2023/10/03 06:28:02;;;;;;;28.85;17.10;;;18.40;88.10;;;;;;5094378;28;20528;-53
2023/10/03 06:30:30;;;;;;;24.90;15.95;;;18.40;88.00;;;;;;5082804;28;20028;-52
2023/10/03 06:32:55;;;;;;;25.63;15.75;;;18.40;88.00;;;;;;5087172;28;20028;-49
2023/10/03 06:35:23;;;;;;;26.20;15.95;;;18.40;88.10;;;;;;5083420;28;20031;-52
2023/10/03 06:37:52;;;;;;;27.90;16.23;;;18.40;88.00;;;;;;5093493;28;20051;-50
2023/10/03 06:40:21;;;;;;;26.70;17.30;;;18.40;88.00;;;;;;5080741;28;20032;-53
2023/10/03 06:42:49;;;;;;;32.38;16.10;;;18.50;88.10;;;;;;5095685;28;20119;-51
2023/10/03 06:45:15;;;;;;;25.77;17.33;;;18.50;88.20;;;;;;5088775;28;20052;-54
2023/10/03 06:47:43;;;;;;;27.15;15.85;;;18.50;88.30;;;;;;5089697;28;20436;-54
2023/10/03 06:50:11;;;;;;;27.85;15.43;;;18.40;88.30;;;;;;5075833;28;20039;-52
2023/10/03 06:52:39;;;;;;;27.73;16.65;;;18.40;88.50;;;;;;5076447;28;20055;-55
2023/10/03 06:55:15;;;;;;;27.73;16.02;;;18.40;88.30;;;;;;5080098;28;20557;-55
2023/10/03 06:57:42;;;;;;;26.17;15.20;;;18.40;88.40;;;;;;5087098;28;20359;-50
2023/10/03 07:00:14;;;;;;;25.02;15.82;;;18.50;88.50;;;;;;5075960;28;20468;-54
2023/10/03 07:02:41;;;;;;;27.00;14.80;;;18.50;88.60;;;;;;5072575;28;20035;-53
2023/10/03 07:05:11;;;;;;;26.35;16.15;;;18.60;88.60;;;;;;5092543;28;20444;-55
2023/10/03 07:07:39;;;;;;;;;;;18.60;88.30;;;;;;5076286;28;20036;-55
2023/10/03 07:10:13;;;;;;;25.23;15.27;;;18.70;88.00;;;;;;5093453;28;19977;-55
2023/10/03 07:12:42;;;;;;;36.65;15.93;;;18.80;88.00;;;;;;5087849;28;20457;-55
2023/10/03 07:15:11;;;;;;;24.83;15.45;;;18.80;87.90;;;;;;5075054;28;20055;-53
2023/10/03 07:17:40;;;;;;;27.90;14.45;;;18.90;88.10;;;;;;5090085;28;20047;-49
2023/10/03 07:20:10;;;;;;;23.95;15.00;;;19.00;88.00;;;;;;5095480;28;20028;-51
2023/10/03 07:22:38;;;;;;;26.50;16.92;;;19.10;87.70;;;;;;5079031;28;20073;-55
2023/10/03 07:25:08;;;;;;;28.55;15.90;;;19.10;87.60;;;;;;5077807;28;20039;-54
2023/10/03 07:27:41;;;;;;;27.05;14.98;;;19.10;87.60;;;;;;5095412;28;20024;-52
2023/10/03 07:30:14;;;;;;;22.30;13.73;;;19.20;87.30;;;;;;5090338;28;20047;-51
2023/10/03 07:32:41;;;;;;;24.20;14.65;;;19.20;87.20;;;;;;5057380;28;20058;-50
2023/10/03 07:35:11;;;;;;;24.73;14.77;;;19.20;87.10;;;;;;5074735;28;20021;-52
2023/10/03 07:37:39;;;;;;;26.65;14.05;;;19.40;87.20;;;;;;5074784;28;20104;-51
2023/10/03 07:40:14;;;;;;;27.67;15.82;;;19.60;87.00;;;;;;5075633;28;20028;-55
2023/10/03 07:42:49;;;;;;;22.80;14.40;;;19.70;86.40;;;;;;5078645;28;20028;-55
2023/10/03 07:45:17;;;;;;;27.63;14.82;;;19.70;86.20;;;;;;5094225;28;20591;-52
2023/10/03 07:47:44;;;;;;;25.90;14.38;;;19.60;86.30;;;;;;5094791;28;20043;-50
2023/10/03 07:50:11;;;;;;;28.77;15.65;;;19.50;86.10;;;;;;5093814;28;20016;-54
2023/10/03 07:52:41;;;;;;;21.58;14.27;;;19.40;86.50;;;;;;5076395;28;20024;-54
2023/10/03 07:55:11;;;;;;;24.70;14.80;;;19.40;86.60;;;;;;5076374;28;20112;-52
2023/10/03 07:57:41;;;;;;;23.70;13.43;;;19.40;87.00;;;;;;5091693;28;20138;-55
2023/10/03 08:00:09;;;;;;;25.50;13.68;;;19.40;87.20;;;;;;5093354;28;20031;-50
2023/10/03 08:02:43;;;;;;;23.33;14.27;;;19.50;87.00;;;;;;5093070;28;20024;-50
2023/10/03 08:05:11;;;;;;;24.17;13.65;;;19.50;86.90;;;;;;5064981;28;20039;-54
2023/10/03 08:07:39;;;;;;;28.30;14.40;;;19.50;86.90;;;;;;5094469;28;20047;-52
2023/10/03 08:10:06;;;;;;;20.52;13.32;;;19.50;86.90;;;;;;5092560;28;20087;-52
2023/10/03 08:12:37;;;;;;;22.25;11.93;;;19.40;87.10;;;;;;5074181;28;20056;-52
2023/10/03 08:15:16;;;;;;;19.65;12.30;;;19.30;87.60;;;;;;5090778;28;20393;-55
2023/10/03 08:17:48;;;;;;;26.58;12.43;;;19.30;87.90;;;;;;5092649;28;20024;-55
2023/10/03 08:20:21;;;;;;;23.70;12.07;;;19.20;88.20;;;;;;5072561;28;20119;-53
2023/10/03 08:22:54;;;;;;;21.58;12.02;;;19.10;88.30;;;;;;5091295;28;20440;-51
2023/10/03 08:25:27;;;;;;;20.88;12.15;;;19.10;88.50;;;;;;5090575;28;20052;-52
2023/10/03 08:27:56;;;;;;;17.52;10.75;;;19.00;88.60;;;;;;5092856;28;20097;-49
2023/10/03 08:30:31;;;;;;;19.67;11.93;;;18.90;89.10;;;;;;5093047;28;20032;-49
2023/10/03 08:33:07;;;;;;;22.00;12.32;;;18.90;89.50;;;;;;5092592;28;20024;-54
2023/10/03 08:35:35;;;;;;;22.15;11.98;;;18.90;89.80;;;;;;5092805;28;20039;-49
2023/10/03 08:38:13;;;;;;;22.10;11.68;;;18.70;90.10;;;;;;5091923;28;20055;-45
2023/10/03 08:40:49;;;;;;;18.52;10.98;;;18.60;90.70;;;;;;5058684;28;20043;-47
2023/10/03 08:43:25;;;;;;;20.13;11.30;;;18.60;90.90;;;;;;5093465;28;20031;-47
2023/10/03 08:45:57;;;;;;;14.30;9.00;;;18.50;90.80;;;;;;5056730;28;20071;-47
2023/10/03 08:48:36;;;;;;;18.38;10.25;;;18.40;90.80;;;;;;5052897;28;20814;-50
2023/10/03 08:51:04;;;;;;;19.63;10.32;;;18.40;91.10;;;;;;5053230;28;20048;-46
2023/10/03 08:53:34;;;;;;;19.05;9.57;;;18.40;90.90;;;;;;5065382;28;20515;-49
2023/10/03 08:56:02;;;;;;;;;;;18.40;90.80;;;;;;5072843;28;20029;-49
2023/10/03 08:58:30;;;;;;;17.20;7.28;;;18.40;90.20;;;;;;5072731;28;20245;-51
2023/10/03 09:01:07;;;;;;;15.68;8.07;;;18.40;89.60;;;;;;5072670;28;20057;-48
2023/10/03 09:03:47;;;;;;;16.95;7.25;;;18.30;89.50;;;;;;5058477;28;20044;-53
2023/10/03 09:06:23;;;;;;;19.33;7.43;;;18.40;89.60;;;;;;5052258;28;20525;-47
2023/10/03 09:09:41;;;;;;;18.25;7.32;;;18.30;89.10;;;;;;5069950;28;20048;-48
2023/10/03 09:11:51;;;;;;;22.27;8.15;;;18.20;89.60;;;;;;5060716;28;20055;-52
2023/10/03 09:14:23;;;;;;;16.02;6.18;;;18.10;89.90;;;;;;5059500;28;20035;-46
2023/10/03 09:16:51;;;;;;;17.85;6.80;;;18.10;90.00;;;;;;5068497;28;20027;-47
2023/10/03 09:19:23;;;;;;;16.20;4.25;;;17.90;89.80;;;;;;5075905;28;20089;-52
2023/10/03 09:21:54;;;;;;;14.23;3.65;;;17.90;90.40;;;;;;5056583;28;20036;-52
2023/10/03 09:24:47;;;;;;;12.10;3.97;;;17.80;90.40;;;;;;5060641;28;20442;-50
2023/10/03 09:27:20;;;;;;;14.70;3.15;;;17.60;90.40;;;;;;5062139;28;20051;-45
2023/10/03 09:29:49;;;;;;;15.50;3.25;;;17.50;90.60;;;;;;5055054;28;20037;-45
2023/10/03 09:32:19;;;;;;;17.20;3.85;;;17.30;90.70;;;;;;5070437;28;20013;-45
2023/10/03 09:35:09;;;;;;;16.42;3.42;;;17.30;90.70;;;;;;5078821;28;20032;-45
2023/10/03 09:37:43;;;;;;;17.00;3.80;;;17.20;90.10;;;;;;5068593;28;20052;-45
2023/10/03 09:40:21;;;;;;;13.75;3.03;;;17.20;90.30;;;;;;5064112;28;20028;-49
2023/10/03 09:42:53;;;;;;;12.60;2.50;;;17.20;90.20;;;;;;5070986;28;20442;-48
2023/10/03 09:45:24;;;;;;;;;;;17.40;89.90;;;;;;5071840;28;20454;-51
2023/10/03 09:47:58;;;;;;;10.57;2.85;;;17.40;89.80;;;;;;5034167;28;19921;-51
2023/10/03 09:50:30;;;;;;;11.25;3.03;;;17.40;89.50;;;;;;5031690;28;20034;-54
2023/10/03 09:53:01;;;;;;;11.43;3.15;;;17.40;88.60;;;;;;5033003;28;20037;-51
2023/10/03 09:55:46;;;;;;;7.95;1.65;;;17.30;87.90;;;;;;5049405;28;20025;-50
2023/10/03 09:58:21;;;;;;;10.25;1.58;;;17.20;87.90;;;;;;5051499;28;20021;-48
2023/10/03 10:00:54;;;;;;;10.20;2.05;;;17.10;87.40;;;;;;5050637;28;20037;-53
2023/10/03 10:03:26;;;;;;;6.00;1.58;;;17.00;86.90;;;;;;5044797;28;20029;-53
2023/10/03 10:06:29;;;;;;;9.60;2.17;;;16.90;87.30;;;;;;5000285;28;20037;-49
2023/10/03 10:09:26;;;;;;;7.53;1.30;;;16.80;88.50;;;;;;5033444;28;20087;-47
2023/10/03 10:12:22;;;;;;;8.32;2.22;;;16.60;90.50;;;;;;5032247;28;20029;-49
2023/10/03 10:15:26;;;;;;;5.88;1.10;;;16.40;91.30;;;;;;5015294;28;20080;-47
2023/10/03 10:17:58;;;;;;;5.68;1.40;;;16.20;91.90;;;;;;5032803;28;20088;-45
2023/10/03 10:20:40;;;;;;;7.30;1.88;;;16.10;92.20;;;;;;5032163;28;20087;-47
2023/10/03 10:25:42;;;;;;;6.88;1.70;;;16.20;92.20;;;;;;5052443;28;20049;-46
2023/10/03 10:28:34;;;;;;;7.93;1.42;;;16.20;92.20;;;;;;5051415;28;20025;-50
2023/10/03 10:31:29;;;;;;;8.75;1.92;;;16.40;92.10;;;;;;5030262;28;20036;-45
2023/10/03 10:34:22;;;;;;;8.52;1.20;;;16.40;90.30;;;;;;5035977;28;20032;-47
2023/10/03 10:37:02;;;;;;;6.22;1.00;;;16.30;88.70;;;;;;5051395;28;20054;-46
2023/10/03 10:42:55;;;;;;;6.95;1.08;;;16.20;88.10;;;;;;5050064;28;20056;-48
2023/10/03 10:45:22;;;;;;;3.10;0.70;;;16.10;86.90;;;;;;5056329;28;20044;-51
2023/10/03 10:47:51;;;;;;;4.25;0.90;;;16.10;87.20;;;;;;5083313;28;20040;-49
2023/10/03 10:50:31;;;;;;;6.57;1.23;;;16.20;87.20;;;;;;5097825;28;20398;-47
2023/10/03 10:53:02;;;;;;;5.93;1.13;;;16.20;87.60;;;;;;5081843;28;20029;-48
2023/10/03 10:55:33;;;;;;;13.02;2.30;;;16.40;88.30;;;;;;5063294;28;20024;-51
2023/10/03 10:58:13;;;;;;;10.15;1.88;;;16.40;88.20;;;;;;5091648;28;20039;-52
2023/10/03 11:00:40;;;;;;;9.48;1.65;;;16.50;87.30;;;;;;5077254;28;20471;-50
2023/10/03 11:03:07;;;;;;;5.18;1.20;;;16.40;86.70;;;;;;5094353;28;20480;-48
2023/10/03 11:06:05;;;;;;;7.57;0.88;;;16.50;87.20;;;;;;5092243;28;20029;-50
2023/10/03 11:08:45;;;;;;;6.70;1.05;;;16.40;84.70;;;;;;5074496;28;20040;-47
2023/10/03 11:11:14;;;;;;;4.05;0.80;;;16.40;85.00;;;;;;5073784;28;20031;-48
2023/10/03 11:13:53;;;;;;;6.60;1.63;;;16.50;85.20;;;;;;5075290;28;20361;-54
2023/10/03 11:16:26;;;;;;;5.40;1.02;;;16.40;85.60;;;;;;5075676;28;20722;-53
2023/10/03 11:18:54;;;;;;;8.05;1.95;;;16.40;86.10;;;;;;5083478;28;20119;-54
2023/10/03 11:21:33;;;;;;;8.02;0.98;;;16.40;85.40;;;;;;5060829;28;20048;-48
2023/10/03 11:24:11;;;;;;;4.00;0.75;;;16.40;84.90;;;;;;5095030;28;20475;-52
2023/10/03 11:26:49;;;;;;;4.75;1.25;;;16.40;83.60;;;;;;5075205;28;20472;-53
2023/10/03 11:29:34;;;;;;;3.97;1.10;;;16.30;83.90;;;;;;5080900;28;20046;-54
2023/10/03 11:32:01;;;;;;;2.78;0.93;;;16.20;83.80;;;;;;5089184;28;20020;-53
2023/10/03 11:34:36;;;;;;;6.75;1.35;;;16.20;85.20;;;;;;5092477;28;20031;-51
2023/10/03 11:37:04;;;;;;;5.60;1.27;;;16.20;85.70;;;;;;5082810;28;20036;-52
2023/10/03 11:39:40;;;;;;;5.85;2.00;;;16.20;85.70;;;;;;5094160;28;20036;-53
2023/10/03 11:42:08;;;;;;;4.10;1.38;;;16.10;85.40;;;;;;5082511;28;20169;-49
2023/10/03 11:44:36;;;;;;;6.25;1.50;;;16.10;84.70;;;;;;5077335;28;20052;-53
2023/10/03 11:47:04;;;;;;;4.60;1.17;;;16.10;84.20;;;;;;5092022;28;20441;-53
2023/10/03 11:49:32;;;;;;;5.25;1.48;;;16.00;83.40;;;;;;5093379;28;20032;-51
2023/10/03 11:51:59;;;;;;;7.22;1.98;;;16.00;83.40;;;;;;5091905;28;20028;-54
2023/10/03 11:54:26;;;;;;;5.60;1.30;;;15.90;83.90;;;;;;5094923;28;20034;-49
2023/10/03 11:56:54;;;;;;;14.38;2.05;;;15.90;84.40;;;;;;5092794;28;20089;-56
2023/10/03 11:59:21;;;;;;;10.63;1.83;;;15.90;84.30;;;;;;5094559;28;20027;-54
2023/10/03 12:01:48;;;;;;;5.93;1.83;;;15.90;83.70;;;;;;5075903;28;20047;-56
2023/10/03 12:04:18;;;;;;;6.15;1.83;;;15.90;83.60;;;;;;5075304;28;20024;-55
2023/10/03 12:06:48;;;;;;;4.85;1.30;;;15.90;83.20;;;;;;5092128;28;20507;-52
2023/10/03 12:09:16;;;;;;;5.78;1.60;;;16.00;82.60;;;;;;5094277;28;20047;-51
2023/10/03 12:11:43;;;;;;;9.00;1.52;;;16.10;82.90;;;;;;5080287;28;20092;-53
2023/10/03 12:14:11;;;;;;;6.07;1.38;;;16.30;82.10;;;;;;5056327;28;20020;-52
2023/10/03 12:16:40;;;;;;;5.30;1.30;;;16.30;82.40;;;;;;5073802;28;20086;-53
2023/10/03 12:19:07;;;;;;;7.75;1.63;;;16.20;81.60;;;;;;5074317;28;20055;-52
2023/10/03 12:21:36;;;;;;;6.80;1.70;;;16.00;82.70;;;;;;5073921;28;20090;-53
2023/10/03 12:24:03;;;;;;;7.35;2.00;;;15.80;83.70;;;;;;5073629;28;20031;-52
2023/10/03 12:26:30;;;;;;;10.05;3.70;;;15.70;83.50;;;;;;5073522;28;20028;-48
2023/10/03 12:28:57;;;;;;;8.07;2.38;;;15.60;83.90;;;;;;5072965;28;20047;-50
2023/10/03 12:31:27;;;;;;;7.75;2.60;;;15.70;84.20;;;;;;5073729;28;20017;-52
2023/10/03 12:33:55;;;;;;;9.43;3.13;;;15.70;83.30;;;;;;5073609;28;20012;-54
2023/10/03 12:36:26;;;;;;;9.13;3.22;;;15.70;82.90;;;;;;5056397;28;20035;-52
2023/10/03 12:38:53;;;;;;;7.43;2.92;;;15.70;79.60;;;;;;5073543;28;20362;-51
2023/10/03 12:41:29;;;;;;;8.07;3.08;;;15.80;79.00;;;;;;5072922;28;20482;-54
2023/10/03 12:43:55;;;;;;;8.95;3.25;;;15.80;78.80;;;;;;5065604;28;20033;-50
2023/10/03 12:46:23;;;;;;;9.35;3.08;;;15.90;78.40;;;;;;5055601;28;20124;-53
2023/10/03 12:48:54;;;;;;;7.80;2.97;;;16.10;78.10;;;;;;5073320;28;20028;-55
2023/10/03 12:51:23;;;;;;;16.20;3.33;;;16.20;77.70;;;;;;5073653;28;20029;-51
2023/10/03 12:53:52;;;;;;;10.10;3.85;;;16.20;77.60;;;;;;5091682;28;20048;-50
2023/10/03 12:56:20;;;;;;;8.02;2.80;;;16.40;77.90;;;;;;5093241;28;20032;-53
2023/10/03 12:58:47;;;;;;;19.65;3.92;;;16.40;77.50;;;;;;5094882;28;20368;-54
2023/10/03 13:01:16;;;;;;;9.68;3.45;;;16.30;77.50;;;;;;5113035;28;20401;-52